NY/NJ Local METAR Reports

 

KNYC - NYC/Central Park, NY, USA
Distance from Hoboken: NE 4mi, 7km
Updated: 01/18/2018 2:51am
Clear
Clear
 Wind from WNW
Wind: WNW 9 mph , 15 km/h
Temperature: 19°F , -7°C
Wind Chill: 8°F , -13°C
Dew Point: 9°F , -13°C
Humidity: 63%
Barometer: 30.13 inHg , 1020.3 hPa
Clouds: Clear
Visibility: 10 miles , 16 km
2018/01/18 07:51 KNYC 180751Z AUTO 29008KT 10SM CLR M07/M13 A3013 RMK AO2 SLP195 T10671128
KEWR - Newark, NJ, USA
Distance from Hoboken: WSW 8mi, 13km
Updated: 01/18/2018 2:51am
Clear
Clear
 Wind from NW
Wind: NW 10 mph , 17 km/h
Temperature: 19°F , -7°C
Wind Chill: 8°F , -13°C
Dew Point: 9°F , -13°C
Humidity: 63%
Barometer: 30.13 inHg , 1020.3 hPa
Clouds: Clear
Visibility: 10 miles , 16 km
2018/01/18 07:51 KEWR 180751Z 31009KT 10SM CLR M07/M13 A3013 RMK AO2 SLP203 T10721128
 
KLGA - NYC/La Guardia, NY, USA
Distance from Hoboken: ENE 8mi, 13km
Updated: 01/18/2018 2:51am
Clear
Clear
 Wind from NW
Wind: NW 17 mph , 28 km/h
Temperature: 21°F , -6°C
Wind Chill: 7°F , -14°C
Dew Point: 10°F , -12°C
Humidity: 63%
Barometer: 30.12 inHg , 1020 hPa
Clouds: Clear
Visibility: 10 miles , 16 km
2018/01/18 07:51 KLGA 180751Z 31015KT 10SM CLR M06/M12 A3012 RMK AO2 SLP197 T10561122
KTEB - Teterboro, NJ, USA
Distance from Hoboken: N 9mi, 14km
Updated: 01/18/2018 2:51am
Clear
Clear
 Wind from NW
Wind: NW 10 mph , 17 km/h, Gust: 21 mph , 33 km/h
Temperature: 19°F , -7°C
Wind Chill: 8°F , -13°C
Dew Point: 9°F , -13°C
Humidity: 63%
Barometer: 30.12 inHg , 1020 hPa
Clouds: Clear
Visibility: 10 miles , 16 km
2018/01/18 07:51 KTEB 180751Z 31009G18KT 10SM CLR M07/M13 A3012 RMK AO2 SLP199 T10721128
 
KJFK - NYC/Jfk Arpt, NY, USA
Distance from Hoboken: ESE 16mi, 25km
Updated: 01/18/2018 2:51am
Clear
Clear
 Wind from NW
Wind: NW 18 mph , 30 km/h
Temperature: 21°F , -6°C
Wind Chill: 6°F , -14°C
Dew Point: 10°F , -12°C
Humidity: 63%
Barometer: 30.13 inHg , 1020.3 hPa
Clouds: Clear
Visibility: 10 miles , 16 km
2018/01/18 07:51 KJFK 180751Z 32016KT 10SM CLR M06/M12 A3013 RMK AO2 SLP200 T10611122 $
KCDW - Caldwell, NJ, USA
Distance from Hoboken: NW 16mi, 26km
Updated: 01/18/2018 1:53am
Clear
Clear
 Wind from W
Wind: W 5 mph , 7 km/h
Temperature: 16°F , -9°C
Wind Chill: 8°F , -13°C
Dew Point: 9°F , -13°C
Humidity: 73%
Barometer: 30.15 inHg , 1021 hPa
Clouds: Clear
Visibility: 10 miles , 16 km
2018/01/18 06:53 KCDW 180653Z AUTO 27004KT 10SM CLR M09/M13 A3015 RMK AO2 SLP218 T10941128 TSNO
 
KMMU - Morristown Muni, NJ, USA
Distance from Hoboken: W 20mi, 33km
Updated: 01/18/2018 2:35am
Clear
Clear
 Wind from calm
Wind: Calm
Temperature: 14°F , -10°C
Dew Point: 10°F , -12°C
Humidity: 85%
Barometer: 30.14 inHg , 1020.7 hPa
Clouds: Clear
Visibility: 10 miles , 16 km
2018/01/18 07:35 KMMU 180735Z AUTO 00000KT 10SM CLR M10/M12 A3014 RMK AO2
KHPN - White Plains, NY, USA
Distance from Hoboken: NE 28mi, 46km
Updated: 01/18/2018 1:56am
Clear
Clear
 Wind from NW
Wind: NW 8 mph , 13 km/h
Temperature: 18°F , -8°C
Wind Chill: 8°F , -13°C
Dew Point: 10°F , -12°C
Humidity: 73%
Barometer: 30.09 inHg , 1019 hPa
Clouds: Clear
Visibility: 10 miles , 16 km
2018/01/18 06:56 KHPN 180656Z 31007KT 10SM CLR M08/M12 A3009 RMK AO2 SLP200 T10781117
 
KFRG - Farmingdale, NY, USA
Distance from Hoboken: E 32mi, 52km
Updated: 01/18/2018 1:53am
Few Clouds
Few Clouds
 Wind from NW
Wind: NW 7 mph , 11 km/h
Temperature: 21°F , -6°C
Wind Chill: 12°F , -11°C
Dew Point: 16°F , -9°C
Humidity: 80%
Barometer: 30.11 inHg , 1019.6 hPa
Clouds: Few Clouds
Visibility: 10 miles , 16 km
Cloud details: Few Clouds 1700 ft
2018/01/18 06:53 KFRG 180653Z 32006KT 10SM FEW017 M06/M09 A3011 RMK AO2 SLP196 T10561094
KSMQ - Somerville, NJ, USA
Distance from Hoboken: WSW 34mi, 55km
Updated: 01/18/2018 1:53am
Clear
Clear
 Wind from calm
Wind: Calm
Temperature: 12°F , -11°C
Dew Point: 9°F , -13°C
Humidity: 85%
Barometer: 30.15 inHg , 1021 hPa
Clouds: Clear
Visibility: 8 miles , 13 km
2018/01/18 06:53 KSMQ 180653Z AUTO 00000KT 8SM CLR M11/M13 A3015 RMK AO2 SLP212 T11061128
 
KBLM - Belmar/Farmdale, NJ, USA
Distance from Hoboken: S 40mi, 64km
Updated: 01/18/2018 1:56am
Clear
Clear
 Wind from WNW
Wind: WNW 13 mph , 20 km/h, Gust: 21 mph , 33 km/h
Temperature: 18°F , -8°C
Wind Chill: 5°F , -15°C
Dew Point: 10°F , -12°C
Humidity: 73%
Barometer: 30.13 inHg , 1020.3 hPa
Clouds: Clear
Visibility: 10 miles , 16 km
2018/01/18 06:56 KBLM 180656Z AUTO 30011G18KT 10SM CLR M08/M12 A3013 RMK AO2 SLP208 T10781122 FZRANO
K12N - Andover, NJ, USA
Distance from Hoboken: WNW 41mi, 67km
Updated: 01/18/2018 1:54am

 Wind from calm
Wind: Calm
Temperature: -0°F , -18°C
Dew Point: -4°F , -20°C
Humidity: 84%
Barometer: 30.13 inHg , 1020.3 hPa
2018/01/18 06:54 K12N 180654Z AUTO 00000KT M18/M20 A3013 RMK AO1 SLP222 T11831200
 
KFWN - Sussex, NJ, USA
Distance from Hoboken: NW 45mi, 72km
Updated: 01/18/2018 1:53am
Clear
Clear
 Wind from calm
Wind: Calm
Temperature: 1°F , -17°C
Dew Point: -0°F , -18°C
Humidity: 92%
Barometer: 30.12 inHg , 1020 hPa
Clouds: Clear
Visibility: 7 miles , 11 km
2018/01/18 06:53 KFWN 180653Z AUTO 00000KT 7SM CLR M17/M18 A3012 RMK AO2 SLP209 T11671178
KISP - Islip, NY, USA
Distance from Hoboken: E 49mi, 79km
Updated: 01/18/2018 1:56am
Clear
Clear
 Wind from N
Wind: N 13 mph , 20 km/h
Temperature: 23°F , -5°C
Wind Chill: 11°F , -12°C
Dew Point: 12°F , -11°C
Humidity: 63%
Barometer: 30.08 inHg , 1018.6 hPa
Clouds: Clear
Visibility: 10 miles , 16 km
2018/01/18 06:56 KISP 180656Z AUTO 35011KT 10SM CLR M05/M11 A3008 RMK AO2 SLP188 T10501106